Terminal Aerodrome Forecast
Issued by NWS Denver/Boulder, CO

Home | Current Version | Previous Version | Text Only | Print | Product List | Glossary On
Versions: 1 2 3 4 5 6 7 8 9 10 11 12 13 14 15 16 17 18 19 20 21 22 23 24 25 26 27 28 29 30 31 32 33 34 35 36 37 38 39 40 41 42 43 44 45 46 47 48 49 50
774
FTUS45 KBOU 230359 AAD
TAFDEN
TAF AMD
KDEN 230359Z 2304/2406 10009KT P6SM FEW100 SCT140 BKN220
     FM230600 12008KT P6SM FEW140 SCT220
     FM230900 15008KT P6SM FEW220
     FM231700 15012KT P6SM FEW120 SCT220
     FM232100 15012KT P6SM VCTS SCT070CB BKN150
     FM240100 34012KT P6SM FEW070 SCT150=

USA.gov is the U.S. government's official web portal to all federal, state and local government web resources and services.